sensor_id;sensor_type;location;lat;lon;timestamp;P1;durP1;ratioP1;P2;durP2;ratioP2
3036;SDS011;1528;52.550;13.408;2022-12-18T00:02:36;31.53;;;28.30;;
3036;SDS011;1528;52.550;13.408;2022-12-18T00:05:21;33.90;;;29.67;;
3036;SDS011;1528;52.550;13.408;2022-12-18T00:08:07;32.13;;;28.90;;
3036;SDS011;1528;52.550;13.408;2022-12-18T00:10:54;31.47;;;28.27;;
3036;SDS011;1528;52.550;13.408;2022-12-18T00:13:40;33.55;;;30.33;;
3036;SDS011;1528;52.550;13.408;2022-12-18T00:16:26;33.07;;;29.90;;
3036;SDS011;1528;52.550;13.408;2022-12-18T00:19:13;29.85;;;26.95;;
3036;SDS011;1528;52.550;13.408;2022-12-18T00:21:59;31.25;;;27.98;;
3036;SDS011;1528;52.550;13.408;2022-12-18T00:24:45;29.93;;;26.80;;
3036;SDS011;1528;52.550;13.408;2022-12-18T00:27:32;35.10;;;31.40;;
3036;SDS011;1528;52.550;13.408;2022-12-18T00:30:17;34.13;;;28.92;;
3036;SDS011;1528;52.550;13.408;2022-12-18T00:33:03;36.83;;;31.70;;
3036;SDS011;1528;52.550;13.408;2022-12-18T00:35:49;34.83;;;30.90;;
3036;SDS011;1528;52.550;13.408;2022-12-18T00:38:34;35.07;;;31.67;;
3036;SDS011;1528;52.550;13.408;2022-12-18T00:41:20;33.70;;;30.40;;
3036;SDS011;1528;52.550;13.408;2022-12-18T00:44:21;32.67;;;29.27;;
3036;SDS011;1528;52.550;13.408;2022-12-18T00:47:07;33.67;;;29.97;;
3036;SDS011;1528;52.550;13.408;2022-12-18T00:49:52;33.97;;;29.53;;
3036;SDS011;1528;52.550;13.408;2022-12-18T00:52:39;32.37;;;29.30;;
3036;SDS011;1528;52.550;13.408;2022-12-18T00:55:25;37.25;;;30.75;;
3036;SDS011;1528;52.550;13.408;2022-12-18T00:58:11;38.40;;;34.60;;
3036;SDS011;1528;52.550;13.408;2022-12-18T01:00:59;35.43;;;32.03;;
3036;SDS011;1528;52.550;13.408;2022-12-18T01:03:44;31.17;;;28.20;;
3036;SDS011;1528;52.550;13.408;2022-12-18T01:06:30;34.40;;;31.17;;
3036;SDS011;1528;52.550;13.408;2022-12-18T01:09:16;32.42;;;29.27;;
3036;SDS011;1528;52.550;13.408;2022-12-18T01:12:01;31.13;;;28.20;;
3036;SDS011;1528;52.550;13.408;2022-12-18T01:14:47;36.35;;;32.75;;
3036;SDS011;1528;52.550;13.408;2022-12-18T01:17:34;33.60;;;30.15;;
3036;SDS011;1528;52.550;13.408;2022-12-18T01:20:20;33.08;;;29.50;;
3036;SDS011;1528;52.550;13.408;2022-12-18T01:23:05;32.28;;;28.80;;
3036;SDS011;1528;52.550;13.408;2022-12-18T01:25:51;34.92;;;31.40;;
3036;SDS011;1528;52.550;13.408;2022-12-18T01:28:38;31.98;;;28.77;;
3036;SDS011;1528;52.550;13.408;2022-12-18T01:31:24;33.80;;;30.50;;
3036;SDS011;1528;52.550;13.408;2022-12-18T01:34:12;32.73;;;29.27;;
3036;SDS011;1528;52.550;13.408;2022-12-18T01:36:58;37.80;;;34.10;;
3036;SDS011;1528;52.550;13.408;2022-12-18T01:39:47;34.97;;;31.70;;
3036;SDS011;1528;52.550;13.408;2022-12-18T01:42:33;37.63;;;33.88;;
3036;SDS011;1528;52.550;13.408;2022-12-18T01:45:23;35.33;;;31.88;;
3036;SDS011;1528;52.550;13.408;2022-12-18T01:48:12;33.83;;;30.63;;
3036;SDS011;1528;52.550;13.408;2022-12-18T01:50:59;41.60;;;37.50;;
3036;SDS011;1528;52.550;13.408;2022-12-18T01:53:46;36.25;;;32.55;;
3036;SDS011;1528;52.550;13.408;2022-12-18T01:56:32;34.13;;;31.03;;
3036;SDS011;1528;52.550;13.408;2022-12-18T01:59:18;34.55;;;31.33;;
3036;SDS011;1528;52.550;13.408;2022-12-18T02:02:04;36.55;;;32.95;;
3036;SDS011;1528;52.550;13.408;2022-12-18T02:04:50;31.20;;;28.17;;
3036;SDS011;1528;52.550;13.408;2022-12-18T02:07:40;37.27;;;34.20;;
3036;SDS011;1528;52.550;13.408;2022-12-18T02:10:36;35.43;;;31.67;;
3036;SDS011;1528;52.550;13.408;2022-12-18T02:13:30;37.08;;;33.88;;
3036;SDS011;1528;52.550;13.408;2022-12-18T02:16:21;33.43;;;30.33;;
3036;SDS011;1528;52.550;13.408;2022-12-18T02:19:15;33.73;;;30.40;;
3036;SDS011;1528;52.550;13.408;2022-12-18T02:22:17;36.23;;;32.43;;
3036;SDS011;1528;52.550;13.408;2022-12-18T02:25:16;37.03;;;33.57;;
3036;SDS011;1528;52.550;13.408;2022-12-18T02:28:13;39.23;;;35.63;;
3036;SDS011;1528;52.550;13.408;2022-12-18T02:31:02;35.92;;;32.17;;
3036;SDS011;1528;52.550;13.408;2022-12-18T02:33:51;32.47;;;29.08;;
3036;SDS011;1528;52.550;13.408;2022-12-18T02:36:40;38.27;;;34.13;;
3036;SDS011;1528;52.550;13.408;2022-12-18T02:39:28;39.03;;;34.88;;
3036;SDS011;1528;52.550;13.408;2022-12-18T02:42:15;37.57;;;33.77;;
3036;SDS011;1528;52.550;13.408;2022-12-18T02:45:04;38.60;;;34.40;;
3036;SDS011;1528;52.550;13.408;2022-12-18T02:47:50;40.53;;;35.83;;
3036;SDS011;1528;52.550;13.408;2022-12-18T02:50:38;39.83;;;35.38;;
3036;SDS011;1528;52.550;13.408;2022-12-18T02:53:31;45.13;;;40.35;;
3036;SDS011;1528;52.550;13.408;2022-12-18T02:56:21;41.15;;;36.67;;
3036;SDS011;1528;52.550;13.408;2022-12-18T02:59:13;44.33;;;39.63;;
3036;SDS011;1528;52.550;13.408;2022-12-18T03:02:05;41.30;;;36.77;;
3036;SDS011;1528;52.550;13.408;2022-12-18T03:05:03;36.83;;;31.20;;
3036;SDS011;1528;52.550;13.408;2022-12-18T03:07:56;40.90;;;35.00;;
3036;SDS011;1528;52.550;13.408;2022-12-18T03:10:45;40.13;;;35.72;;
3036;SDS011;1528;52.550;13.408;2022-12-18T03:13:36;46.22;;;37.78;;
3036;SDS011;1528;52.550;13.408;2022-12-18T03:16:25;41.20;;;35.77;;
3036;SDS011;1528;52.550;13.408;2022-12-18T03:19:14;42.73;;;34.70;;
3036;SDS011;1528;52.550;13.408;2022-12-18T03:22:03;43.63;;;35.40;;
3036;SDS011;1528;52.550;13.408;2022-12-18T03:24:52;40.17;;;34.93;;
3036;SDS011;1528;52.550;13.408;2022-12-18T03:27:41;52.63;;;37.15;;
3036;SDS011;1528;52.550;13.408;2022-12-18T03:30:31;55.97;;;40.53;;
3036;SDS011;1528;52.550;13.408;2022-12-18T03:33:24;52.75;;;39.92;;
3036;SDS011;1528;52.550;13.408;2022-12-18T03:36:13;48.88;;;41.58;;
3036;SDS011;1528;52.550;13.408;2022-12-18T03:38:59;48.97;;;40.28;;
3036;SDS011;1528;52.550;13.408;2022-12-18T03:41:47;49.30;;;42.07;;
3036;SDS011;1528;52.550;13.408;2022-12-18T03:44:40;49.90;;;42.00;;
3036;SDS011;1528;52.550;13.408;2022-12-18T03:47:30;47.27;;;39.63;;
3036;SDS011;1528;52.550;13.408;2022-12-18T03:50:22;48.10;;;38.15;;
3036;SDS011;1528;52.550;13.408;2022-12-18T03:53:21;50.07;;;36.90;;
3036;SDS011;1528;52.550;13.408;2022-12-18T03:56:13;43.83;;;37.80;;
3036;SDS011;1528;52.550;13.408;2022-12-18T03:59:01;46.15;;;40.40;;
3036;SDS011;1528;52.550;13.408;2022-12-18T04:01:49;45.72;;;38.55;;
3036;SDS011;1528;52.550;13.408;2022-12-18T04:04:37;42.73;;;37.83;;
3036;SDS011;1528;52.550;13.408;2022-12-18T04:07:25;42.75;;;37.53;;
3036;SDS011;1528;52.550;13.408;2022-12-18T04:10:12;41.42;;;35.53;;
3036;SDS011;1528;52.550;13.408;2022-12-18T04:12:59;44.85;;;33.97;;
3036;SDS011;1528;52.550;13.408;2022-12-18T04:15:45;41.50;;;37.17;;
3036;SDS011;1528;52.550;13.408;2022-12-18T04:18:30;35.90;;;32.00;;
3036;SDS011;1528;52.550;13.408;2022-12-18T04:21:16;38.07;;;33.93;;
3036;SDS011;1528;52.550;13.408;2022-12-18T04:24:02;37.63;;;33.58;;
3036;SDS011;1528;52.550;13.408;2022-12-18T04:26:50;37.85;;;33.75;;
3036;SDS011;1528;52.550;13.408;2022-12-18T04:29:35;34.77;;;31.17;;
3036;SDS011;1528;52.550;13.408;2022-12-18T04:32:21;43.10;;;35.60;;
3036;SDS011;1528;52.550;13.408;2022-12-18T04:35:07;37.45;;;33.30;;
3036;SDS011;1528;52.550;13.408;2022-12-18T04:37:54;36.90;;;33.10;;
3036;SDS011;1528;52.550;13.408;2022-12-18T04:40:39;33.33;;;29.95;;
3036;SDS011;1528;52.550;13.408;2022-12-18T04:43:27;34.77;;;30.37;;
3036;SDS011;1528;52.550;13.408;2022-12-18T04:46:12;35.93;;;31.80;;
3036;SDS011;1528;52.550;13.408;2022-12-18T04:48:58;34.78;;;30.55;;
3036;SDS011;1528;52.550;13.408;2022-12-18T04:51:43;34.35;;;30.75;;
3036;SDS011;1528;52.550;13.408;2022-12-18T04:54:29;35.17;;;31.30;;
3036;SDS011;1528;52.550;13.408;2022-12-18T04:57:14;36.17;;;32.00;;
3036;SDS011;1528;52.550;13.408;2022-12-18T05:00:03;35.42;;;31.55;;
3036;SDS011;1528;52.550;13.408;2022-12-18T05:02:49;33.30;;;29.77;;
3036;SDS011;1528;52.550;13.408;2022-12-18T05:05:35;32.38;;;29.20;;
3036;SDS011;1528;52.550;13.408;2022-12-18T05:08:20;36.17;;;31.40;;
3036;SDS011;1528;52.550;13.408;2022-12-18T05:11:07;32.85;;;29.35;;
3036;SDS011;1528;52.550;13.408;2022-12-18T05:13:54;31.98;;;28.40;;
3036;SDS011;1528;52.550;13.408;2022-12-18T05:16:41;36.42;;;32.97;;
3036;SDS011;1528;52.550;13.408;2022-12-18T05:19:27;32.20;;;27.40;;
3036;SDS011;1528;52.550;13.408;2022-12-18T05:22:12;32.08;;;27.80;;
3036;SDS011;1528;52.550;13.408;2022-12-18T05:24:58;32.10;;;28.80;;
3036;SDS011;1528;52.550;13.408;2022-12-18T05:27:44;35.58;;;32.10;;
3036;SDS011;1528;52.550;13.408;2022-12-18T05:30:29;35.30;;;31.75;;
3036;SDS011;1528;52.550;13.408;2022-12-18T05:33:16;35.95;;;32.25;;
3036;SDS011;1528;52.550;13.408;2022-12-18T05:36:04;34.03;;;30.37;;
3036;SDS011;1528;52.550;13.408;2022-12-18T05:38:50;33.83;;;30.30;;
3036;SDS011;1528;52.550;13.408;2022-12-18T05:41:36;36.35;;;32.55;;
3036;SDS011;1528;52.550;13.408;2022-12-18T05:44:21;34.50;;;31.00;;
3036;SDS011;1528;52.550;13.408;2022-12-18T05:47:07;38.28;;;34.53;;
3036;SDS011;1528;52.550;13.408;2022-12-18T05:49:54;34.33;;;30.55;;
3036;SDS011;1528;52.550;13.408;2022-12-18T05:52:39;34.30;;;30.92;;
3036;SDS011;1528;52.550;13.408;2022-12-18T05:55:25;33.67;;;30.25;;
3036;SDS011;1528;52.550;13.408;2022-12-18T05:58:11;33.75;;;30.65;;
3036;SDS011;1528;52.550;13.408;2022-12-18T06:00:58;36.10;;;32.55;;
3036;SDS011;1528;52.550;13.408;2022-12-18T06:03:55;33.93;;;30.50;;
3036;SDS011;1528;52.550;13.408;2022-12-18T06:06:42;32.80;;;29.38;;
3036;SDS011;1528;52.550;13.408;2022-12-18T06:09:28;32.47;;;28.92;;
3036;SDS011;1528;52.550;13.408;2022-12-18T06:12:14;37.60;;;33.83;;
3036;SDS011;1528;52.550;13.408;2022-12-18T06:14:59;36.40;;;30.83;;
3036;SDS011;1528;52.550;13.408;2022-12-18T06:17:48;39.90;;;34.87;;
3036;SDS011;1528;52.550;13.408;2022-12-18T06:20:34;37.03;;;33.13;;
3036;SDS011;1528;52.550;13.408;2022-12-18T06:23:24;37.08;;;33.33;;
3036;SDS011;1528;52.550;13.408;2022-12-18T06:26:11;41.50;;;34.22;;
3036;SDS011;1528;52.550;13.408;2022-12-18T06:28:57;39.50;;;35.50;;
3036;SDS011;1528;52.550;13.408;2022-12-18T06:31:43;41.50;;;35.55;;
3036;SDS011;1528;52.550;13.408;2022-12-18T06:34:29;39.37;;;33.37;;
3036;SDS011;1528;52.550;13.408;2022-12-18T06:37:16;38.33;;;33.73;;
3036;SDS011;1528;52.550;13.408;2022-12-18T06:40:03;38.57;;;33.30;;
3036;SDS011;1528;52.550;13.408;2022-12-18T06:42:49;39.63;;;32.20;;
3036;SDS011;1528;52.550;13.408;2022-12-18T06:45:35;36.85;;;30.98;;
3036;SDS011;1528;52.550;13.408;2022-12-18T06:48:20;41.95;;;33.80;;
3036;SDS011;1528;52.550;13.408;2022-12-18T06:51:06;42.20;;;36.83;;
3036;SDS011;1528;52.550;13.408;2022-12-18T06:53:52;35.97;;;32.07;;
3036;SDS011;1528;52.550;13.408;2022-12-18T06:56:39;39.17;;;33.13;;
3036;SDS011;1528;52.550;13.408;2022-12-18T06:59:24;38.03;;;34.13;;
3036;SDS011;1528;52.550;13.408;2022-12-18T07:02:10;42.53;;;38.13;;
3036;SDS011;1528;52.550;13.408;2022-12-18T07:04:56;37.77;;;33.67;;
3036;SDS011;1528;52.550;13.408;2022-12-18T07:07:42;46.43;;;36.30;;
3036;SDS011;1528;52.550;13.408;2022-12-18T07:10:27;38.23;;;34.33;;
3036;SDS011;1528;52.550;13.408;2022-12-18T07:13:14;41.77;;;35.90;;
3036;SDS011;1528;52.550;13.408;2022-12-18T07:16:04;38.90;;;33.53;;
3036;SDS011;1528;52.550;13.408;2022-12-18T07:18:51;38.17;;;31.00;;
3036;SDS011;1528;52.550;13.408;2022-12-18T07:21:37;38.40;;;34.20;;
3036;SDS011;1528;52.550;13.408;2022-12-18T07:24:22;38.90;;;34.77;;
3036;SDS011;1528;52.550;13.408;2022-12-18T07:27:08;41.15;;;36.78;;
3036;SDS011;1528;52.550;13.408;2022-12-18T07:29:55;42.00;;;37.70;;
3036;SDS011;1528;52.550;13.408;2022-12-18T07:32:40;42.63;;;38.03;;
3036;SDS011;1528;52.550;13.408;2022-12-18T07:35:26;39.00;;;35.20;;
3036;SDS011;1528;52.550;13.408;2022-12-18T07:38:12;39.27;;;35.10;;
3036;SDS011;1528;52.550;13.408;2022-12-18T07:41:00;40.33;;;36.10;;
3036;SDS011;1528;52.550;13.408;2022-12-18T07:43:45;41.13;;;36.08;;
3036;SDS011;1528;52.550;13.408;2022-12-18T07:46:33;37.78;;;34.03;;
3036;SDS011;1528;52.550;13.408;2022-12-18T07:49:18;39.03;;;34.93;;
3036;SDS011;1528;52.550;13.408;2022-12-18T07:52:04;43.23;;;39.03;;
3036;SDS011;1528;52.550;13.408;2022-12-18T07:54:50;40.38;;;36.33;;
3036;SDS011;1528;52.550;13.408;2022-12-18T07:57:35;42.35;;;38.30;;
3036;SDS011;1528;52.550;13.408;2022-12-18T08:00:21;40.28;;;35.90;;
3036;SDS011;1528;52.550;13.408;2022-12-18T08:03:08;39.38;;;35.45;;
3036;SDS011;1528;52.550;13.408;2022-12-18T08:06:03;39.92;;;35.65;;
3036;SDS011;1528;52.550;13.408;2022-12-18T08:08:51;40.58;;;36.20;;
3036;SDS011;1528;52.550;13.408;2022-12-18T08:11:37;40.17;;;34.65;;
3036;SDS011;1528;52.550;13.408;2022-12-18T08:14:22;39.17;;;35.10;;
3036;SDS011;1528;52.550;13.408;2022-12-18T08:17:08;39.93;;;35.87;;
3036;SDS011;1528;52.550;13.408;2022-12-18T08:19:55;37.23;;;33.33;;
3036;SDS011;1528;52.550;13.408;2022-12-18T08:22:40;40.97;;;36.80;;
3036;SDS011;1528;52.550;13.408;2022-12-18T08:25:26;36.67;;;33.03;;
3036;SDS011;1528;52.550;13.408;2022-12-18T08:28:12;41.67;;;36.70;;
3036;SDS011;1528;52.550;13.408;2022-12-18T08:30:57;40.57;;;35.13;;
3036;SDS011;1528;52.550;13.408;2022-12-18T08:33:43;43.20;;;38.90;;
3036;SDS011;1528;52.550;13.408;2022-12-18T08:36:30;39.57;;;35.77;;
3036;SDS011;1528;52.550;13.408;2022-12-18T08:39:16;38.73;;;35.33;;
3036;SDS011;1528;52.550;13.408;2022-12-18T08:42:01;39.00;;;35.50;;
3036;SDS011;1528;52.550;13.408;2022-12-18T08:45:05;41.47;;;37.88;;
3036;SDS011;1528;52.550;13.408;2022-12-18T08:47:51;39.95;;;36.25;;
3036;SDS011;1528;52.550;13.408;2022-12-18T08:50:36;43.63;;;39.80;;
3036;SDS011;1528;52.550;13.408;2022-12-18T08:53:23;39.37;;;35.77;;
3036;SDS011;1528;52.550;13.408;2022-12-18T08:56:09;38.27;;;34.90;;
3036;SDS011;1528;52.550;13.408;2022-12-18T08:58:55;41.07;;;37.37;;
3036;SDS011;1528;52.550;13.408;2022-12-18T09:01:41;36.70;;;33.37;;
3036;SDS011;1528;52.550;13.408;2022-12-18T09:04:27;37.50;;;34.13;;
3036;SDS011;1528;52.550;13.408;2022-12-18T09:07:12;34.83;;;31.73;;
3036;SDS011;1528;52.550;13.408;2022-12-18T09:09:59;35.27;;;31.97;;
3036;SDS011;1528;52.550;13.408;2022-12-18T09:12:45;36.77;;;33.17;;
3036;SDS011;1528;52.550;13.408;2022-12-18T09:15:30;38.43;;;34.73;;
3036;SDS011;1528;52.550;13.408;2022-12-18T09:18:17;36.50;;;33.27;;
3036;SDS011;1528;52.550;13.408;2022-12-18T09:21:08;36.43;;;32.90;;
3036;SDS011;1528;52.550;13.408;2022-12-18T09:23:54;38.90;;;35.00;;
3036;SDS011;1528;52.550;13.408;2022-12-18T09:26:42;38.03;;;34.57;;
3036;SDS011;1528;52.550;13.408;2022-12-18T09:29:28;35.43;;;31.93;;
3036;SDS011;1528;52.550;13.408;2022-12-18T09:32:13;33.47;;;30.47;;
3036;SDS011;1528;52.550;13.408;2022-12-18T09:34:59;35.97;;;32.47;;
3036;SDS011;1528;52.550;13.408;2022-12-18T09:37:45;35.87;;;32.20;;
3036;SDS011;1528;52.550;13.408;2022-12-18T09:40:32;33.80;;;30.20;;
3036;SDS011;1528;52.550;13.408;2022-12-18T09:43:23;34.37;;;30.87;;
3036;SDS011;1528;52.550;13.408;2022-12-18T09:46:15;36.50;;;33.00;;
3036;SDS011;1528;52.550;13.408;2022-12-18T09:49:05;37.63;;;34.00;;
3036;SDS011;1528;52.550;13.408;2022-12-18T09:51:57;37.43;;;33.73;;
3036;SDS011;1528;52.550;13.408;2022-12-18T09:54:48;39.70;;;36.00;;
3036;SDS011;1528;52.550;13.408;2022-12-18T09:57:36;38.20;;;34.70;;
3036;SDS011;1528;52.550;13.408;2022-12-18T10:00:28;38.00;;;34.77;;
3036;SDS011;1528;52.550;13.408;2022-12-18T10:03:14;38.53;;;34.93;;
3036;SDS011;1528;52.550;13.408;2022-12-18T10:06:01;45.20;;;41.17;;
3036;SDS011;1528;52.550;13.408;2022-12-18T10:08:52;42.07;;;37.57;;
3036;SDS011;1528;52.550;13.408;2022-12-18T10:11:46;42.60;;;38.10;;
3036;SDS011;1528;52.550;13.408;2022-12-18T10:14:40;51.37;;;45.37;;
3036;SDS011;1528;52.550;13.408;2022-12-18T10:17:34;41.20;;;36.83;;
3036;SDS011;1528;52.550;13.408;2022-12-18T10:20:27;38.90;;;35.03;;
3036;SDS011;1528;52.550;13.408;2022-12-18T10:23:21;37.50;;;33.83;;
3036;SDS011;1528;52.550;13.408;2022-12-18T10:26:11;41.20;;;37.20;;
3036;SDS011;1528;52.550;13.408;2022-12-18T10:28:57;37.27;;;33.57;;
3036;SDS011;1528;52.550;13.408;2022-12-18T10:31:45;37.83;;;33.93;;
3036;SDS011;1528;52.550;13.408;2022-12-18T10:34:32;37.60;;;33.90;;
3036;SDS011;1528;52.550;13.408;2022-12-18T10:37:18;37.43;;;33.83;;
3036;SDS011;1528;52.550;13.408;2022-12-18T10:40:06;38.30;;;34.10;;
3036;SDS011;1528;52.550;13.408;2022-12-18T10:43:09;34.27;;;31.07;;
3036;SDS011;1528;52.550;13.408;2022-12-18T10:45:59;38.67;;;34.87;;
3036;SDS011;1528;52.550;13.408;2022-12-18T10:48:51;37.10;;;33.70;;
3036;SDS011;1528;52.550;13.408;2022-12-18T10:51:40;39.13;;;35.27;;
3036;SDS011;1528;52.550;13.408;2022-12-18T10:54:25;40.40;;;36.70;;
3036;SDS011;1528;52.550;13.408;2022-12-18T10:57:14;42.13;;;38.47;;
3036;SDS011;1528;52.550;13.408;2022-12-18T11:00:03;40.37;;;36.63;;
3036;SDS011;1528;52.550;13.408;2022-12-18T11:03:09;38.73;;;34.70;;
3036;SDS011;1528;52.550;13.408;2022-12-18T11:06:17;40.30;;;36.13;;
3036;SDS011;1528;52.550;13.408;2022-12-18T11:09:18;39.67;;;35.83;;
3036;SDS011;1528;52.550;13.408;2022-12-18T11:12:08;35.80;;;31.90;;
3036;SDS011;1528;52.550;13.408;2022-12-18T11:15:01;36.27;;;32.63;;
3036;SDS011;1528;52.550;13.408;2022-12-18T11:17:48;35.67;;;32.00;;
3036;SDS011;1528;52.550;13.408;2022-12-18T11:20:35;37.57;;;33.80;;
3036;SDS011;1528;52.550;13.408;2022-12-18T11:23:20;39.27;;;35.37;;
3036;SDS011;1528;52.550;13.408;2022-12-18T11:26:09;38.17;;;34.30;;
3036;SDS011;1528;52.550;13.408;2022-12-18T11:29:07;36.83;;;32.93;;
3036;SDS011;1528;52.550;13.408;2022-12-18T11:32:01;36.40;;;32.70;;
3036;SDS011;1528;52.550;13.408;2022-12-18T11:35:15;33.50;;;30.33;;
3036;SDS011;1528;52.550;13.408;2022-12-18T11:38:10;34.37;;;31.40;;
3036;SDS011;1528;52.550;13.408;2022-12-18T11:40:59;34.37;;;31.13;;
3036;SDS011;1528;52.550;13.408;2022-12-18T11:43:52;32.20;;;27.53;;
3036;SDS011;1528;52.550;13.408;2022-12-18T11:46:43;35.43;;;31.23;;
3036;SDS011;1528;52.550;13.408;2022-12-18T11:49:34;34.37;;;31.10;;
3036;SDS011;1528;52.550;13.408;2022-12-18T11:52:21;29.70;;;26.83;;
3036;SDS011;1528;52.550;13.408;2022-12-18T11:55:12;33.57;;;30.40;;
3036;SDS011;1528;52.550;13.408;2022-12-18T11:58:00;33.73;;;30.50;;
3036;SDS011;1528;52.550;13.408;2022-12-18T12:00:52;35.20;;;31.87;;
3036;SDS011;1528;52.550;13.408;2022-12-18T12:03:47;35.40;;;32.10;;
3036;SDS011;1528;52.550;13.408;2022-12-18T12:06:50;36.93;;;32.00;;
3036;SDS011;1528;52.550;13.408;2022-12-18T12:09:46;34.77;;;31.40;;
3036;SDS011;1528;52.550;13.408;2022-12-18T12:12:45;35.43;;;31.93;;
3036;SDS011;1528;52.550;13.408;2022-12-18T12:15:43;35.27;;;31.97;;
3036;SDS011;1528;52.550;13.408;2022-12-18T12:18:43;36.30;;;33.03;;
3036;SDS011;1528;52.550;13.408;2022-12-18T12:21:42;38.50;;;34.90;;
3036;SDS011;1528;52.550;13.408;2022-12-18T12:24:36;32.77;;;29.57;;
3036;SDS011;1528;52.550;13.408;2022-12-18T12:27:28;33.97;;;30.57;;
3036;SDS011;1528;52.550;13.408;2022-12-18T12:30:24;33.07;;;29.77;;
3036;SDS011;1528;52.550;13.408;2022-12-18T12:33:22;33.97;;;30.40;;
3036;SDS011;1528;52.550;13.408;2022-12-18T12:36:20;32.60;;;29.67;;
3036;SDS011;1528;52.550;13.408;2022-12-18T12:39:11;32.53;;;29.53;;
3036;SDS011;1528;52.550;13.408;2022-12-18T12:42:04;34.67;;;31.57;;
3036;SDS011;1528;52.550;13.408;2022-12-18T12:45:14;31.83;;;29.23;;
3036;SDS011;1528;52.550;13.408;2022-12-18T12:48:05;30.00;;;27.67;;
3036;SDS011;1528;52.550;13.408;2022-12-18T12:50:57;32.03;;;29.27;;
3036;SDS011;1528;52.550;13.408;2022-12-18T12:53:46;35.80;;;32.40;;
3036;SDS011;1528;52.550;13.408;2022-12-18T12:56:36;40.77;;;36.90;;
3036;SDS011;1528;52.550;13.408;2022-12-18T12:59:30;44.30;;;40.40;;
3036;SDS011;1528;52.550;13.408;2022-12-18T13:02:22;36.17;;;32.73;;
3036;SDS011;1528;52.550;13.408;2022-12-18T13:05:15;37.53;;;34.10;;
3036;SDS011;1528;52.550;13.408;2022-12-18T13:08:06;35.93;;;32.50;;
3036;SDS011;1528;52.550;13.408;2022-12-18T13:10:54;38.20;;;34.80;;
3036;SDS011;1528;52.550;13.408;2022-12-18T13:14:01;37.97;;;34.37;;
3036;SDS011;1528;52.550;13.408;2022-12-18T13:16:45;35.90;;;32.40;;
3036;SDS011;1528;52.550;13.408;2022-12-18T13:19:31;38.00;;;34.70;;
3036;SDS011;1528;52.550;13.408;2022-12-18T13:22:20;38.27;;;34.80;;
3036;SDS011;1528;52.550;13.408;2022-12-18T13:28:14;35.97;;;32.80;;
3036;SDS011;1528;52.550;13.408;2022-12-18T13:31:01;35.93;;;33.17;;
3036;SDS011;1528;52.550;13.408;2022-12-18T13:33:47;34.57;;;31.17;;
3036;SDS011;1528;52.550;13.408;2022-12-18T13:36:33;34.90;;;31.33;;
3036;SDS011;1528;52.550;13.408;2022-12-18T13:39:23;34.37;;;31.50;;
3036;SDS011;1528;52.550;13.408;2022-12-18T13:45:43;35.73;;;32.47;;
3036;SDS011;1528;52.550;13.408;2022-12-18T13:48:31;33.50;;;30.20;;
3036;SDS011;1528;52.550;13.408;2022-12-18T13:51:18;31.50;;;28.50;;
3036;SDS011;1528;52.550;13.408;2022-12-18T13:54:06;33.20;;;30.50;;
3036;SDS011;1528;52.550;13.408;2022-12-18T13:57:04;32.93;;;30.03;;
3036;SDS011;1528;52.550;13.408;2022-12-18T13:59:51;36.07;;;33.00;;
3036;SDS011;1528;52.550;13.408;2022-12-18T14:02:38;34.53;;;31.47;;
3036;SDS011;1528;52.550;13.408;2022-12-18T14:05:23;33.27;;;30.47;;
3036;SDS011;1528;52.550;13.408;2022-12-18T14:08:11;35.37;;;32.57;;
3036;SDS011;1528;52.550;13.408;2022-12-18T14:10:59;34.90;;;32.00;;
3036;SDS011;1528;52.550;13.408;2022-12-18T14:13:46;38.00;;;35.00;;
3036;SDS011;1528;52.550;13.408;2022-12-18T14:16:32;39.23;;;35.70;;
3036;SDS011;1528;52.550;13.408;2022-12-18T14:19:23;37.27;;;33.67;;
3036;SDS011;1528;52.550;13.408;2022-12-18T14:22:16;40.60;;;37.03;;
3036;SDS011;1528;52.550;13.408;2022-12-18T14:25:13;41.33;;;38.13;;
3036;SDS011;1528;52.550;13.408;2022-12-18T14:28:04;36.70;;;33.40;;
3036;SDS011;1528;52.550;13.408;2022-12-18T14:30:56;38.13;;;34.87;;
3036;SDS011;1528;52.550;13.408;2022-12-18T14:33:42;39.87;;;36.90;;
3036;SDS011;1528;52.550;13.408;2022-12-18T14:36:29;39.97;;;36.67;;
3036;SDS011;1528;52.550;13.408;2022-12-18T14:39:16;38.83;;;35.30;;
3036;SDS011;1528;52.550;13.408;2022-12-18T14:42:03;35.77;;;32.87;;
3036;SDS011;1528;52.550;13.408;2022-12-18T14:44:48;37.80;;;34.57;;
3036;SDS011;1528;52.550;13.408;2022-12-18T14:47:34;38.47;;;35.47;;
3036;SDS011;1528;52.550;13.408;2022-12-18T14:50:20;36.90;;;33.90;;
3036;SDS011;1528;52.550;13.408;2022-12-18T14:53:18;33.67;;;30.57;;
3036;SDS011;1528;52.550;13.408;2022-12-18T14:56:12;30.87;;;28.27;;
3036;SDS011;1528;52.550;13.408;2022-12-18T14:59:02;33.63;;;31.07;;
3036;SDS011;1528;52.550;13.408;2022-12-18T15:01:50;30.90;;;28.50;;
3036;SDS011;1528;52.550;13.408;2022-12-18T15:04:42;34.50;;;31.87;;
3036;SDS011;1528;52.550;13.408;2022-12-18T15:07:38;33.90;;;31.50;;
3036;SDS011;1528;52.550;13.408;2022-12-18T15:10:28;28.13;;;26.10;;
3036;SDS011;1528;52.550;13.408;2022-12-18T15:13:20;32.53;;;29.73;;
3036;SDS011;1528;52.550;13.408;2022-12-18T15:16:06;33.40;;;30.97;;
3036;SDS011;1528;52.550;13.408;2022-12-18T15:18:57;31.47;;;29.13;;
3036;SDS011;1528;52.550;13.408;2022-12-18T15:21:43;29.13;;;27.00;;
3036;SDS011;1528;52.550;13.408;2022-12-18T15:24:30;33.37;;;30.87;;
3036;SDS011;1528;52.550;13.408;2022-12-18T15:27:22;32.17;;;29.97;;
3036;SDS011;1528;52.550;13.408;2022-12-18T15:33:20;34.73;;;32.03;;
3036;SDS011;1528;52.550;13.408;2022-12-18T15:36:10;32.50;;;29.60;;
3036;SDS011;1528;52.550;13.408;2022-12-18T15:38:58;34.57;;;31.93;;
3036;SDS011;1528;52.550;13.408;2022-12-18T15:41:46;35.17;;;32.30;;
3036;SDS011;1528;52.550;13.408;2022-12-18T15:44:51;29.75;;;27.35;;
3036;SDS011;1528;52.550;13.408;2022-12-18T15:47:36;36.67;;;33.57;;
3036;SDS011;1528;52.550;13.408;2022-12-18T15:50:22;32.43;;;29.83;;
3036;SDS011;1528;52.550;13.408;2022-12-18T15:53:10;33.70;;;30.47;;
3036;SDS011;1528;52.550;13.408;2022-12-18T15:55:57;33.27;;;30.67;;
3036;SDS011;1528;52.550;13.408;2022-12-18T15:59:00;30.50;;;28.00;;
3036;SDS011;1528;52.550;13.408;2022-12-18T16:01:49;34.53;;;31.73;;
3036;SDS011;1528;52.550;13.408;2022-12-18T16:04:36;34.23;;;31.93;;
3036;SDS011;1528;52.550;13.408;2022-12-18T16:07:22;37.57;;;34.63;;
3036;SDS011;1528;52.550;13.408;2022-12-18T16:10:07;34.17;;;31.47;;
3036;SDS011;1528;52.550;13.408;2022-12-18T16:12:53;31.60;;;29.20;;
3036;SDS011;1528;52.550;13.408;2022-12-18T16:15:39;35.40;;;32.23;;
3036;SDS011;1528;52.550;13.408;2022-12-18T16:18:26;36.10;;;33.10;;
3036;SDS011;1528;52.550;13.408;2022-12-18T16:21:11;32.67;;;30.13;;
3036;SDS011;1528;52.550;13.408;2022-12-18T16:23:57;33.77;;;31.37;;
3036;SDS011;1528;52.550;13.408;2022-12-18T16:26:43;34.90;;;32.30;;
3036;SDS011;1528;52.550;13.408;2022-12-18T16:29:29;33.30;;;30.73;;
3036;SDS011;1528;52.550;13.408;2022-12-18T16:32:15;34.10;;;31.37;;
3036;SDS011;1528;52.550;13.408;2022-12-18T16:35:04;35.07;;;32.47;;
3036;SDS011;1528;52.550;13.408;2022-12-18T16:37:50;37.07;;;33.80;;
3036;SDS011;1528;52.550;13.408;2022-12-18T16:40:35;34.63;;;31.97;;
3036;SDS011;1528;52.550;13.408;2022-12-18T16:43:43;38.57;;;35.70;;
3036;SDS011;1528;52.550;13.408;2022-12-18T16:46:29;34.50;;;31.40;;
3036;SDS011;1528;52.550;13.408;2022-12-18T16:49:15;33.97;;;31.40;;
3036;SDS011;1528;52.550;13.408;2022-12-18T16:52:03;32.27;;;29.87;;